Terminal Aerodrome Forecast
Issued by NWS

Home | Current Version | Previous Version | Text Only | Print | Product List | Glossary On
Versions: 1 2 3 4 5 6 7 8 9 10 11 12 13 14 15 16 17 18 19 20 21 22 23 24 25 26 27
000
FTUS46 KMTR 241720
TAFSFO
TAF
KSFO 241720Z 2418/2524 06005KT P6SM FEW035
     FM241900 33007KT P6SM FEW035
     FM242100 29012KT P6SM FEW035 BKN150
     FM250600 26007KT P6SM SCT020 BKN060
     FM251000 26004KT P6SM BKN030 BKN060
     FM251200 VRB04KT P6SM BKN030 BKN060
     FM251600 VRB04KT P6SM SCT030 SCT080=

USA.gov is the U.S. government's official web portal to all federal, state and local government web resources and services.